sensor_id;sensor_type;location;lat;lon;timestamp;P1;durP1;ratioP1;P2;durP2;ratioP2
66478;SDS011;53294;47.912;13.526;2022-11-20T00:01:15;10.40;;;6.47;;
66478;SDS011;53294;47.912;13.526;2022-11-20T00:03:43;9.82;;;6.18;;
66478;SDS011;53294;47.912;13.526;2022-11-20T00:06:11;9.65;;;6.13;;
66478;SDS011;53294;47.912;13.526;2022-11-20T00:08:40;10.45;;;6.57;;
66478;SDS011;53294;47.912;13.526;2022-11-20T00:11:07;8.43;;;5.60;;
66478;SDS011;53294;47.912;13.526;2022-11-20T00:13:42;8.13;;;5.53;;
66478;SDS011;53294;47.912;13.526;2022-11-20T00:16:09;8.60;;;5.30;;
66478;SDS011;53294;47.912;13.526;2022-11-20T00:18:37;9.85;;;6.50;;
66478;SDS011;53294;47.912;13.526;2022-11-20T00:21:04;7.70;;;5.03;;
66478;SDS011;53294;47.912;13.526;2022-11-20T00:23:37;9.15;;;5.78;;
66478;SDS011;53294;47.912;13.526;2022-11-20T00:26:04;8.13;;;5.70;;
66478;SDS011;53294;47.912;13.526;2022-11-20T00:28:32;9.55;;;5.65;;
66478;SDS011;53294;47.912;13.526;2022-11-20T00:31:02;7.80;;;5.45;;
66478;SDS011;53294;47.912;13.526;2022-11-20T00:33:36;8.55;;;5.82;;
66478;SDS011;53294;47.912;13.526;2022-11-20T00:36:04;7.97;;;5.68;;
66478;SDS011;53294;47.912;13.526;2022-11-20T00:38:33;8.90;;;5.25;;
66478;SDS011;53294;47.912;13.526;2022-11-20T00:41:00;7.82;;;5.53;;
66478;SDS011;53294;47.912;13.526;2022-11-20T00:43:29;8.80;;;5.20;;
66478;SDS011;53294;47.912;13.526;2022-11-20T00:45:59;7.55;;;5.45;;
66478;SDS011;53294;47.912;13.526;2022-11-20T00:48:27;6.35;;;4.57;;
66478;SDS011;53294;47.912;13.526;2022-11-20T00:50:54;8.68;;;5.75;;
66478;SDS011;53294;47.912;13.526;2022-11-20T00:53:21;8.35;;;5.03;;
66478;SDS011;53294;47.912;13.526;2022-11-20T00:55:55;8.38;;;4.95;;
66478;SDS011;53294;47.912;13.526;2022-11-20T00:58:23;6.28;;;4.53;;
66478;SDS011;53294;47.912;13.526;2022-11-20T01:00:50;7.88;;;4.90;;
66478;SDS011;53294;47.912;13.526;2022-11-20T01:03:17;7.15;;;4.82;;
66478;SDS011;53294;47.912;13.526;2022-11-20T01:05:51;7.72;;;5.00;;
66478;SDS011;53294;47.912;13.526;2022-11-20T01:08:18;7.13;;;4.97;;
66478;SDS011;53294;47.912;13.526;2022-11-20T01:10:45;7.28;;;4.97;;
66478;SDS011;53294;47.912;13.526;2022-11-20T01:13:11;8.52;;;4.72;;
66478;SDS011;53294;47.912;13.526;2022-11-20T01:16:17;7.65;;;4.65;;
66478;SDS011;53294;47.912;13.526;2022-11-20T01:18:50;6.70;;;3.92;;
66478;SDS011;53294;47.912;13.526;2022-11-20T01:21:19;5.65;;;3.80;;
66478;SDS011;53294;47.912;13.526;2022-11-20T01:23:48;6.03;;;4.07;;
66478;SDS011;53294;47.912;13.526;2022-11-20T01:26:16;5.50;;;3.63;;
66478;SDS011;53294;47.912;13.526;2022-11-20T01:28:47;5.43;;;3.40;;
66478;SDS011;53294;47.912;13.526;2022-11-20T01:31:21;4.50;;;3.20;;
66478;SDS011;53294;47.912;13.526;2022-11-20T01:33:50;5.88;;;3.65;;
66478;SDS011;53294;47.912;13.526;2022-11-20T01:36:19;5.82;;;3.67;;
66478;SDS011;53294;47.912;13.526;2022-11-20T01:38:47;5.53;;;3.47;;
66478;SDS011;53294;47.912;13.526;2022-11-20T01:41:14;5.40;;;3.20;;
66478;SDS011;53294;47.912;13.526;2022-11-20T01:44:00;5.43;;;3.42;;
66478;SDS011;53294;47.912;13.526;2022-11-20T01:46:28;4.65;;;2.97;;
66478;SDS011;53294;47.912;13.526;2022-11-20T01:49:05;5.78;;;3.15;;
66478;SDS011;53294;47.912;13.526;2022-11-20T01:54:44;4.82;;;3.00;;
66478;SDS011;53294;47.912;13.526;2022-11-20T01:57:15;4.88;;;2.88;;
66478;SDS011;53294;47.912;13.526;2022-11-20T01:59:47;5.57;;;3.10;;
66478;SDS011;53294;47.912;13.526;2022-11-20T02:02:22;4.20;;;2.65;;
66478;SDS011;53294;47.912;13.526;2022-11-20T02:04:49;4.60;;;3.00;;
66478;SDS011;53294;47.912;13.526;2022-11-20T02:07:20;7.00;;;3.13;;
66478;SDS011;53294;47.912;13.526;2022-11-20T02:09:48;6.03;;;2.80;;
66478;SDS011;53294;47.912;13.526;2022-11-20T02:12:22;7.15;;;3.33;;
66478;SDS011;53294;47.912;13.526;2022-11-20T02:15:08;6.00;;;3.40;;
66478;SDS011;53294;47.912;13.526;2022-11-20T02:17:35;5.43;;;3.15;;
66478;SDS011;53294;47.912;13.526;2022-11-20T02:20:01;5.20;;;3.28;;
66478;SDS011;53294;47.912;13.526;2022-11-20T02:22:31;6.97;;;3.60;;
66478;SDS011;53294;47.912;13.526;2022-11-20T02:25:04;6.00;;;3.58;;
66478;SDS011;53294;47.912;13.526;2022-11-20T02:27:33;7.40;;;3.28;;
66478;SDS011;53294;47.912;13.526;2022-11-20T02:30:01;7.85;;;3.75;;
66478;SDS011;53294;47.912;13.526;2022-11-20T02:32:34;6.63;;;3.75;;
66478;SDS011;53294;47.912;13.526;2022-11-20T02:35:08;6.13;;;3.35;;
66478;SDS011;53294;47.912;13.526;2022-11-20T02:40:24;5.18;;;3.15;;
66478;SDS011;53294;47.912;13.526;2022-11-20T02:42:51;5.38;;;3.42;;
66478;SDS011;53294;47.912;13.526;2022-11-20T02:45:18;5.25;;;3.30;;
66478;SDS011;53294;47.912;13.526;2022-11-20T02:47:45;4.68;;;2.88;;
66478;SDS011;53294;47.912;13.526;2022-11-20T02:50:12;6.90;;;3.30;;
66478;SDS011;53294;47.912;13.526;2022-11-20T02:52:39;5.28;;;3.47;;
66478;SDS011;53294;47.912;13.526;2022-11-20T02:55:05;5.15;;;3.33;;
66478;SDS011;53294;47.912;13.526;2022-11-20T02:57:32;5.70;;;3.13;;
66478;SDS011;53294;47.912;13.526;2022-11-20T02:59:59;5.20;;;3.20;;
66478;SDS011;53294;47.912;13.526;2022-11-20T03:02:29;6.22;;;3.20;;
66478;SDS011;53294;47.912;13.526;2022-11-20T03:04:56;5.32;;;3.03;;
66478;SDS011;53294;47.912;13.526;2022-11-20T03:07:23;4.80;;;2.88;;
66478;SDS011;53294;47.912;13.526;2022-11-20T03:09:50;5.80;;;2.83;;
66478;SDS011;53294;47.912;13.526;2022-11-20T03:12:16;6.03;;;3.25;;
66478;SDS011;53294;47.912;13.526;2022-11-20T03:14:43;6.03;;;3.30;;
66478;SDS011;53294;47.912;13.526;2022-11-20T03:17:16;5.15;;;2.97;;
66478;SDS011;53294;47.912;13.526;2022-11-20T03:19:43;5.13;;;3.13;;
66478;SDS011;53294;47.912;13.526;2022-11-20T03:22:10;4.75;;;2.92;;
66478;SDS011;53294;47.912;13.526;2022-11-20T03:24:36;4.30;;;2.70;;
66478;SDS011;53294;47.912;13.526;2022-11-20T03:27:03;4.40;;;2.60;;
66478;SDS011;53294;47.912;13.526;2022-11-20T03:29:29;4.18;;;2.72;;
66478;SDS011;53294;47.912;13.526;2022-11-20T03:31:56;4.47;;;3.13;;
66478;SDS011;53294;47.912;13.526;2022-11-20T03:34:22;4.35;;;2.75;;
66478;SDS011;53294;47.912;13.526;2022-11-20T03:36:49;4.85;;;2.80;;
66478;SDS011;53294;47.912;13.526;2022-11-20T03:39:16;3.45;;;2.67;;
66478;SDS011;53294;47.912;13.526;2022-11-20T03:41:42;5.95;;;2.63;;
66478;SDS011;53294;47.912;13.526;2022-11-20T03:44:10;6.40;;;2.75;;
66478;SDS011;53294;47.912;13.526;2022-11-20T03:46:37;3.72;;;2.38;;
66478;SDS011;53294;47.912;13.526;2022-11-20T03:49:04;4.20;;;2.45;;
66478;SDS011;53294;47.912;13.526;2022-11-20T03:51:32;3.90;;;2.70;;
66478;SDS011;53294;47.912;13.526;2022-11-20T03:54:02;3.72;;;2.28;;
66478;SDS011;53294;47.912;13.526;2022-11-20T03:56:31;4.50;;;2.70;;
66478;SDS011;53294;47.912;13.526;2022-11-20T03:58:59;3.42;;;2.53;;
66478;SDS011;53294;47.912;13.526;2022-11-20T04:01:27;4.07;;;2.55;;
66478;SDS011;53294;47.912;13.526;2022-11-20T04:03:57;5.38;;;2.75;;
66478;SDS011;53294;47.912;13.526;2022-11-20T04:06:26;4.53;;;2.00;;
66478;SDS011;53294;47.912;13.526;2022-11-20T04:08:57;4.65;;;2.95;;
66478;SDS011;53294;47.912;13.526;2022-11-20T04:11:25;4.13;;;2.40;;
66478;SDS011;53294;47.912;13.526;2022-11-20T04:13:54;4.38;;;2.60;;
66478;SDS011;53294;47.912;13.526;2022-11-20T04:16:25;3.47;;;2.13;;
66478;SDS011;53294;47.912;13.526;2022-11-20T04:18:53;3.38;;;2.10;;
66478;SDS011;53294;47.912;13.526;2022-11-20T04:21:21;4.60;;;2.47;;
66478;SDS011;53294;47.912;13.526;2022-11-20T04:23:49;5.07;;;2.30;;
66478;SDS011;53294;47.912;13.526;2022-11-20T04:26:16;4.25;;;2.22;;
66478;SDS011;53294;47.912;13.526;2022-11-20T04:28:43;4.10;;;2.03;;
66478;SDS011;53294;47.912;13.526;2022-11-20T04:31:11;3.78;;;2.08;;
66478;SDS011;53294;47.912;13.526;2022-11-20T04:33:39;4.13;;;2.20;;
66478;SDS011;53294;47.912;13.526;2022-11-20T04:38:38;3.58;;;2.30;;
66478;SDS011;53294;47.912;13.526;2022-11-20T04:41:06;3.08;;;2.25;;
66478;SDS011;53294;47.912;13.526;2022-11-20T04:43:34;4.38;;;2.75;;
66478;SDS011;53294;47.912;13.526;2022-11-20T04:46:00;3.58;;;2.33;;
66478;SDS011;53294;47.912;13.526;2022-11-20T04:48:28;3.60;;;2.30;;
66478;SDS011;53294;47.912;13.526;2022-11-20T04:50:55;4.10;;;2.40;;
66478;SDS011;53294;47.912;13.526;2022-11-20T04:53:23;3.42;;;2.20;;
66478;SDS011;53294;47.912;13.526;2022-11-20T04:55:50;3.45;;;2.00;;
66478;SDS011;53294;47.912;13.526;2022-11-20T04:58:16;3.92;;;2.38;;
66478;SDS011;53294;47.912;13.526;2022-11-20T05:00:43;4.60;;;2.50;;
66478;SDS011;53294;47.912;13.526;2022-11-20T05:03:10;5.07;;;2.70;;
66478;SDS011;53294;47.912;13.526;2022-11-20T05:05:36;4.47;;;2.38;;
66478;SDS011;53294;47.912;13.526;2022-11-20T05:08:03;6.40;;;3.25;;
66478;SDS011;53294;47.912;13.526;2022-11-20T05:10:30;4.43;;;2.30;;
66478;SDS011;53294;47.912;13.526;2022-11-20T05:12:56;5.50;;;2.95;;
66478;SDS011;53294;47.912;13.526;2022-11-20T05:15:24;5.40;;;2.80;;
66478;SDS011;53294;47.912;13.526;2022-11-20T05:17:51;5.15;;;2.92;;
66478;SDS011;53294;47.912;13.526;2022-11-20T05:20:18;4.20;;;2.88;;
66478;SDS011;53294;47.912;13.526;2022-11-20T05:22:46;4.80;;;2.50;;
66478;SDS011;53294;47.912;13.526;2022-11-20T05:25:12;5.13;;;2.78;;
66478;SDS011;53294;47.912;13.526;2022-11-20T05:27:39;5.78;;;3.33;;
66478;SDS011;53294;47.912;13.526;2022-11-20T05:30:06;5.22;;;2.80;;
66478;SDS011;53294;47.912;13.526;2022-11-20T05:32:33;5.40;;;2.95;;
66478;SDS011;53294;47.912;13.526;2022-11-20T05:35:00;4.93;;;2.90;;
66478;SDS011;53294;47.912;13.526;2022-11-20T05:37:26;6.18;;;3.13;;
66478;SDS011;53294;47.912;13.526;2022-11-20T05:39:53;3.90;;;2.38;;
66478;SDS011;53294;47.912;13.526;2022-11-20T05:42:19;5.80;;;3.17;;
66478;SDS011;53294;47.912;13.526;2022-11-20T05:44:58;4.85;;;2.90;;
66478;SDS011;53294;47.912;13.526;2022-11-20T05:47:27;6.35;;;3.70;;
66478;SDS011;53294;47.912;13.526;2022-11-20T05:49:57;5.78;;;3.60;;
66478;SDS011;53294;47.912;13.526;2022-11-20T05:52:23;4.88;;;2.90;;
66478;SDS011;53294;47.912;13.526;2022-11-20T05:54:50;7.05;;;2.88;;
66478;SDS011;53294;47.912;13.526;2022-11-20T05:57:16;4.28;;;2.63;;
66478;SDS011;53294;47.912;13.526;2022-11-20T05:59:43;4.18;;;2.60;;
66478;SDS011;53294;47.912;13.526;2022-11-20T06:02:10;4.13;;;2.38;;
66478;SDS011;53294;47.912;13.526;2022-11-20T06:04:37;4.22;;;2.25;;
66478;SDS011;53294;47.912;13.526;2022-11-20T06:07:06;4.43;;;2.70;;
66478;SDS011;53294;47.912;13.526;2022-11-20T06:09:33;4.00;;;2.50;;
66478;SDS011;53294;47.912;13.526;2022-11-20T06:12:00;4.05;;;2.40;;
66478;SDS011;53294;47.912;13.526;2022-11-20T06:14:26;4.07;;;2.65;;
66478;SDS011;53294;47.912;13.526;2022-11-20T06:16:53;4.50;;;2.85;;
66478;SDS011;53294;47.912;13.526;2022-11-20T06:19:20;5.50;;;3.10;;
66478;SDS011;53294;47.912;13.526;2022-11-20T06:21:47;8.63;;;4.80;;
66478;SDS011;53294;47.912;13.526;2022-11-20T06:24:15;7.15;;;3.45;;
66478;SDS011;53294;47.912;13.526;2022-11-20T06:26:43;7.70;;;3.92;;
66478;SDS011;53294;47.912;13.526;2022-11-20T06:29:10;5.45;;;3.20;;
66478;SDS011;53294;47.912;13.526;2022-11-20T06:31:37;5.97;;;3.13;;
66478;SDS011;53294;47.912;13.526;2022-11-20T06:34:04;5.82;;;3.20;;
66478;SDS011;53294;47.912;13.526;2022-11-20T06:36:32;4.20;;;2.97;;
66478;SDS011;53294;47.912;13.526;2022-11-20T06:38:59;5.95;;;3.55;;
66478;SDS011;53294;47.912;13.526;2022-11-20T06:41:26;4.95;;;2.90;;
66478;SDS011;53294;47.912;13.526;2022-11-20T06:43:54;5.43;;;3.15;;
66478;SDS011;53294;47.912;13.526;2022-11-20T06:46:21;5.45;;;3.13;;
66478;SDS011;53294;47.912;13.526;2022-11-20T06:48:48;5.80;;;3.15;;
66478;SDS011;53294;47.912;13.526;2022-11-20T06:51:16;5.03;;;2.95;;
66478;SDS011;53294;47.912;13.526;2022-11-20T06:53:43;5.70;;;3.00;;
66478;SDS011;53294;47.912;13.526;2022-11-20T06:56:09;6.00;;;3.83;;
66478;SDS011;53294;47.912;13.526;2022-11-20T06:58:36;4.47;;;3.00;;
66478;SDS011;53294;47.912;13.526;2022-11-20T07:01:07;5.32;;;2.88;;
66478;SDS011;53294;47.912;13.526;2022-11-20T07:03:36;6.18;;;2.97;;
66478;SDS011;53294;47.912;13.526;2022-11-20T07:06:04;6.20;;;4.05;;
66478;SDS011;53294;47.912;13.526;2022-11-20T07:08:31;6.38;;;3.13;;
66478;SDS011;53294;47.912;13.526;2022-11-20T07:11:02;6.10;;;3.35;;
66478;SDS011;53294;47.912;13.526;2022-11-20T07:13:31;6.32;;;3.20;;
66478;SDS011;53294;47.912;13.526;2022-11-20T07:15:59;5.13;;;3.20;;
66478;SDS011;53294;47.912;13.526;2022-11-20T07:18:27;4.65;;;2.83;;
66478;SDS011;53294;47.912;13.526;2022-11-20T07:20:53;5.32;;;2.78;;
66478;SDS011;53294;47.912;13.526;2022-11-20T07:23:20;3.35;;;2.30;;
66478;SDS011;53294;47.912;13.526;2022-11-20T07:25:47;4.22;;;2.80;;
66478;SDS011;53294;47.912;13.526;2022-11-20T07:28:13;4.95;;;2.70;;
66478;SDS011;53294;47.912;13.526;2022-11-20T07:30:40;4.95;;;3.00;;
66478;SDS011;53294;47.912;13.526;2022-11-20T07:33:06;4.78;;;2.80;;
66478;SDS011;53294;47.912;13.526;2022-11-20T07:35:33;4.35;;;2.75;;
66478;SDS011;53294;47.912;13.526;2022-11-20T07:38:00;4.53;;;2.80;;
66478;SDS011;53294;47.912;13.526;2022-11-20T07:40:27;6.85;;;2.92;;
66478;SDS011;53294;47.912;13.526;2022-11-20T07:42:54;4.28;;;2.47;;
66478;SDS011;53294;47.912;13.526;2022-11-20T07:45:22;4.05;;;2.50;;
66478;SDS011;53294;47.912;13.526;2022-11-20T07:47:50;4.57;;;2.60;;
66478;SDS011;53294;47.912;13.526;2022-11-20T07:50:18;5.85;;;3.00;;
66478;SDS011;53294;47.912;13.526;2022-11-20T07:52:45;3.83;;;2.22;;
66478;SDS011;53294;47.912;13.526;2022-11-20T07:55:12;5.22;;;2.60;;
66478;SDS011;53294;47.912;13.526;2022-11-20T07:57:39;4.63;;;3.00;;
66478;SDS011;53294;47.912;13.526;2022-11-20T08:00:06;3.88;;;2.60;;
66478;SDS011;53294;47.912;13.526;2022-11-20T08:02:38;4.95;;;2.38;;
66478;SDS011;53294;47.912;13.526;2022-11-20T08:05:07;4.90;;;2.67;;
66478;SDS011;53294;47.912;13.526;2022-11-20T08:07:38;4.60;;;2.38;;
66478;SDS011;53294;47.912;13.526;2022-11-20T08:10:06;3.90;;;2.45;;
66478;SDS011;53294;47.912;13.526;2022-11-20T08:12:34;3.92;;;2.50;;
66478;SDS011;53294;47.912;13.526;2022-11-20T08:15:19;5.53;;;3.20;;
66478;SDS011;53294;47.912;13.526;2022-11-20T08:17:46;5.22;;;2.42;;
66478;SDS011;53294;47.912;13.526;2022-11-20T08:20:32;6.30;;;2.88;;
66478;SDS011;53294;47.912;13.526;2022-11-20T08:23:01;4.65;;;2.63;;
66478;SDS011;53294;47.912;13.526;2022-11-20T08:25:29;4.95;;;2.83;;
66478;SDS011;53294;47.912;13.526;2022-11-20T08:27:59;3.78;;;2.50;;
66478;SDS011;53294;47.912;13.526;2022-11-20T08:30:41;3.47;;;2.58;;
66478;SDS011;53294;47.912;13.526;2022-11-20T08:33:08;4.50;;;2.63;;
66478;SDS011;53294;47.912;13.526;2022-11-20T08:35:35;5.13;;;2.50;;
66478;SDS011;53294;47.912;13.526;2022-11-20T08:38:04;4.20;;;2.40;;
66478;SDS011;53294;47.912;13.526;2022-11-20T08:40:31;3.42;;;2.08;;
66478;SDS011;53294;47.912;13.526;2022-11-20T08:42:59;3.80;;;2.40;;
66478;SDS011;53294;47.912;13.526;2022-11-20T08:45:25;4.45;;;2.50;;
66478;SDS011;53294;47.912;13.526;2022-11-20T08:48:01;4.15;;;2.30;;
66478;SDS011;53294;47.912;13.526;2022-11-20T08:50:29;4.05;;;2.40;;
66478;SDS011;53294;47.912;13.526;2022-11-20T08:53:07;3.53;;;2.40;;
66478;SDS011;53294;47.912;13.526;2022-11-20T08:55:34;4.15;;;2.30;;
66478;SDS011;53294;47.912;13.526;2022-11-20T08:58:05;4.90;;;2.70;;
66478;SDS011;53294;47.912;13.526;2022-11-20T09:03:01;4.22;;;2.10;;
66478;SDS011;53294;47.912;13.526;2022-11-20T09:05:28;4.65;;;2.50;;
66478;SDS011;53294;47.912;13.526;2022-11-20T09:07:56;3.83;;;2.10;;
66478;SDS011;53294;47.912;13.526;2022-11-20T09:10:26;5.32;;;2.28;;
66478;SDS011;53294;47.912;13.526;2022-11-20T09:12:53;3.42;;;1.90;;
66478;SDS011;53294;47.912;13.526;2022-11-20T09:15:24;4.07;;;2.55;;
66478;SDS011;53294;47.912;13.526;2022-11-20T09:17:51;3.28;;;1.70;;
66478;SDS011;53294;47.912;13.526;2022-11-20T09:20:22;2.97;;;1.80;;
66478;SDS011;53294;47.912;13.526;2022-11-20T09:22:49;2.50;;;1.75;;
66478;SDS011;53294;47.912;13.526;2022-11-20T09:25:15;3.00;;;2.20;;
66478;SDS011;53294;47.912;13.526;2022-11-20T09:27:42;3.53;;;1.70;;
66478;SDS011;53294;47.912;13.526;2022-11-20T09:30:10;2.42;;;1.50;;
66478;SDS011;53294;47.912;13.526;2022-11-20T09:32:40;2.65;;;1.70;;
66478;SDS011;53294;47.912;13.526;2022-11-20T09:35:08;1.98;;;1.45;;
66478;SDS011;53294;47.912;13.526;2022-11-20T09:37:35;2.70;;;1.70;;
66478;SDS011;53294;47.912;13.526;2022-11-20T09:40:02;2.47;;;1.70;;
66478;SDS011;53294;47.912;13.526;2022-11-20T09:46:08;4.55;;;2.10;;
66478;SDS011;53294;47.912;13.526;2022-11-20T09:48:39;3.95;;;2.33;;
66478;SDS011;53294;47.912;13.526;2022-11-20T09:54:09;3.25;;;1.80;;
66478;SDS011;53294;47.912;13.526;2022-11-20T09:56:53;6.07;;;3.67;;
66478;SDS011;53294;47.912;13.526;2022-11-20T09:59:38;2.72;;;1.90;;
66478;SDS011;53294;47.912;13.526;2022-11-20T10:02:14;3.90;;;1.88;;
66478;SDS011;53294;47.912;13.526;2022-11-20T10:10:16;4.00;;;1.92;;
66478;SDS011;53294;47.912;13.526;2022-11-20T10:21:11;2.58;;;1.58;;
66478;SDS011;53294;47.912;13.526;2022-11-20T10:29:15;2.60;;;1.60;;
66478;SDS011;53294;47.912;13.526;2022-11-20T10:31:50;3.25;;;1.85;;
66478;SDS011;53294;47.912;13.526;2022-11-20T10:34:29;1.33;;;1.23;;
66478;SDS011;53294;47.912;13.526;2022-11-20T10:37:18;3.38;;;1.75;;
66478;SDS011;53294;47.912;13.526;2022-11-20T10:42:44;2.05;;;1.45;;
66478;SDS011;53294;47.912;13.526;2022-11-20T10:45:16;2.15;;;1.25;;
66478;SDS011;53294;47.912;13.526;2022-11-20T10:50:46;2.38;;;1.40;;
66478;SDS011;53294;47.912;13.526;2022-11-20T10:56:05;1.38;;;1.00;;
66478;SDS011;53294;47.912;13.526;2022-11-20T10:58:45;2.83;;;1.13;;
66478;SDS011;53294;47.912;13.526;2022-11-20T11:01:22;2.90;;;1.45;;
66478;SDS011;53294;47.912;13.526;2022-11-20T11:03:53;1.90;;;1.05;;
66478;SDS011;53294;47.912;13.526;2022-11-20T11:06:25;0.90;;;0.80;;
66478;SDS011;53294;47.912;13.526;2022-11-20T11:08:55;1.10;;;1.00;;
66478;SDS011;53294;47.912;13.526;2022-11-20T11:11:28;1.75;;;0.98;;
66478;SDS011;53294;47.912;13.526;2022-11-20T11:16:56;2.35;;;1.30;;
66478;SDS011;53294;47.912;13.526;2022-11-20T11:19:23;2.50;;;1.38;;
66478;SDS011;53294;47.912;13.526;2022-11-20T11:21:55;1.30;;;1.00;;
66478;SDS011;53294;47.912;13.526;2022-11-20T11:24:26;1.42;;;1.10;;
66478;SDS011;53294;47.912;13.526;2022-11-20T11:27:13;1.80;;;1.30;;
66478;SDS011;53294;47.912;13.526;2022-11-20T11:29:44;3.20;;;1.50;;
66478;SDS011;53294;47.912;13.526;2022-11-20T11:34:39;2.70;;;1.42;;
66478;SDS011;53294;47.912;13.526;2022-11-20T11:37:14;1.95;;;1.13;;
66478;SDS011;53294;47.912;13.526;2022-11-20T11:39:44;2.67;;;1.50;;
66478;SDS011;53294;47.912;13.526;2022-11-20T11:42:24;2.50;;;1.38;;
66478;SDS011;53294;47.912;13.526;2022-11-20T11:44:51;4.10;;;1.80;;
66478;SDS011;53294;47.912;13.526;2022-11-20T11:47:37;5.18;;;2.50;;
66478;SDS011;53294;47.912;13.526;2022-11-20T11:55:17;1.08;;;0.80;;
66478;SDS011;53294;47.912;13.526;2022-11-20T11:57:54;3.03;;;1.50;;
66478;SDS011;53294;47.912;13.526;2022-11-20T12:00:28;1.95;;;1.30;;
66478;SDS011;53294;47.912;13.526;2022-11-20T12:03:06;1.80;;;1.20;;
66478;SDS011;53294;47.912;13.526;2022-11-20T12:05:43;1.48;;;1.13;;
66478;SDS011;53294;47.912;13.526;2022-11-20T12:08:28;2.92;;;1.50;;
66478;SDS011;53294;47.912;13.526;2022-11-20T12:11:04;1.73;;;0.80;;
66478;SDS011;53294;47.912;13.526;2022-11-20T12:13:53;1.48;;;0.90;;
66478;SDS011;53294;47.912;13.526;2022-11-20T12:16:22;1.70;;;1.00;;
66478;SDS011;53294;47.912;13.526;2022-11-20T12:18:50;0.93;;;0.70;;
66478;SDS011;53294;47.912;13.526;2022-11-20T12:29:43;1.45;;;0.80;;
66478;SDS011;53294;47.912;13.526;2022-11-20T12:37:39;0.52;;;0.50;;
66478;SDS011;53294;47.912;13.526;2022-11-20T12:40:28;2.20;;;0.90;;
66478;SDS011;53294;47.912;13.526;2022-11-20T12:48:38;3.00;;;1.40;;
66478;SDS011;53294;47.912;13.526;2022-11-20T12:54:17;11.70;;;4.43;;
66478;SDS011;53294;47.912;13.526;2022-11-20T12:57:06;1.48;;;0.90;;
66478;SDS011;53294;47.912;13.526;2022-11-20T13:05:17;0.93;;;0.60;;
66478;SDS011;53294;47.912;13.526;2022-11-20T13:07:57;2.33;;;0.80;;
66478;SDS011;53294;47.912;13.526;2022-11-20T13:13:18;0.70;;;0.60;;
66478;SDS011;53294;47.912;13.526;2022-11-20T13:18:43;1.90;;;1.10;;
66478;SDS011;53294;47.912;13.526;2022-11-20T13:21:15;0.82;;;0.80;;
66478;SDS011;53294;47.912;13.526;2022-11-20T13:23:47;1.95;;;0.70;;
66478;SDS011;53294;47.912;13.526;2022-11-20T13:26:18;0.85;;;0.85;;
66478;SDS011;53294;47.912;13.526;2022-11-20T13:34:13;1.20;;;1.00;;
66478;SDS011;53294;47.912;13.526;2022-11-20T13:36:52;1.30;;;0.88;;
66478;SDS011;53294;47.912;13.526;2022-11-20T13:39:25;1.35;;;0.95;;
66478;SDS011;53294;47.912;13.526;2022-11-20T13:41:54;2.05;;;0.63;;
66478;SDS011;53294;47.912;13.526;2022-11-20T13:47:23;2.13;;;1.35;;
66478;SDS011;53294;47.912;13.526;2022-11-20T13:49:51;1.42;;;0.82;;
66478;SDS011;53294;47.912;13.526;2022-11-20T13:55:54;1.17;;;0.90;;
66478;SDS011;53294;47.912;13.526;2022-11-20T14:00:48;1.35;;;1.00;;
66478;SDS011;53294;47.912;13.526;2022-11-20T14:03:21;1.50;;;0.85;;
66478;SDS011;53294;47.912;13.526;2022-11-20T14:06:11;2.20;;;1.02;;
66478;SDS011;53294;47.912;13.526;2022-11-20T14:08:46;1.52;;;1.05;;
66478;SDS011;53294;47.912;13.526;2022-11-20T14:11:18;1.00;;;0.90;;
66478;SDS011;53294;47.912;13.526;2022-11-20T14:14:00;1.73;;;1.10;;
66478;SDS011;53294;47.912;13.526;2022-11-20T14:16:32;2.33;;;0.90;;
66478;SDS011;53294;47.912;13.526;2022-11-20T14:21:52;1.48;;;1.10;;
66478;SDS011;53294;47.912;13.526;2022-11-20T14:24:24;1.88;;;1.10;;
66478;SDS011;53294;47.912;13.526;2022-11-20T14:26:51;1.77;;;0.90;;
66478;SDS011;53294;47.912;13.526;2022-11-20T14:29:19;0.90;;;0.88;;
66478;SDS011;53294;47.912;13.526;2022-11-20T14:31:53;1.83;;;1.00;;
66478;SDS011;53294;47.912;13.526;2022-11-20T14:34:22;2.20;;;1.00;;
66478;SDS011;53294;47.912;13.526;2022-11-20T14:36:52;1.83;;;0.90;;
66478;SDS011;53294;47.912;13.526;2022-11-20T14:39:33;1.73;;;1.15;;
66478;SDS011;53294;47.912;13.526;2022-11-20T14:42:01;1.83;;;0.90;;
66478;SDS011;53294;47.912;13.526;2022-11-20T14:44:30;1.60;;;1.10;;
66478;SDS011;53294;47.912;13.526;2022-11-20T14:47:00;2.10;;;1.02;;
66478;SDS011;53294;47.912;13.526;2022-11-20T14:49:29;1.73;;;1.17;;
66478;SDS011;53294;47.912;13.526;2022-11-20T14:51:58;1.30;;;1.20;;
66478;SDS011;53294;47.912;13.526;2022-11-20T14:54:29;2.28;;;1.13;;
66478;SDS011;53294;47.912;13.526;2022-11-20T14:56:58;1.98;;;1.00;;
66478;SDS011;53294;47.912;13.526;2022-11-20T14:59:29;1.20;;;0.95;;
66478;SDS011;53294;47.912;13.526;2022-11-20T15:01:59;2.05;;;1.10;;
66478;SDS011;53294;47.912;13.526;2022-11-20T15:04:28;1.55;;;1.45;;
66478;SDS011;53294;47.912;13.526;2022-11-20T15:06:55;2.10;;;1.27;;
66478;SDS011;53294;47.912;13.526;2022-11-20T15:09:24;1.80;;;1.00;;
66478;SDS011;53294;47.912;13.526;2022-11-20T15:12:01;1.60;;;1.20;;
66478;SDS011;53294;47.912;13.526;2022-11-20T15:14:29;1.35;;;1.05;;
66478;SDS011;53294;47.912;13.526;2022-11-20T15:16:58;1.55;;;1.17;;
66478;SDS011;53294;47.912;13.526;2022-11-20T15:19:25;1.38;;;1.10;;
66478;SDS011;53294;47.912;13.526;2022-11-20T15:21:53;1.40;;;1.00;;
66478;SDS011;53294;47.912;13.526;2022-11-20T15:24:19;1.80;;;1.00;;
66478;SDS011;53294;47.912;13.526;2022-11-20T15:26:47;2.97;;;1.27;;
66478;SDS011;53294;47.912;13.526;2022-11-20T15:29:14;1.50;;;1.20;;
66478;SDS011;53294;47.912;13.526;2022-11-20T15:31:44;4.53;;;1.80;;
66478;SDS011;53294;47.912;13.526;2022-11-20T15:34:12;1.65;;;1.05;;
66478;SDS011;53294;47.912;13.526;2022-11-20T15:36:39;3.03;;;1.40;;
66478;SDS011;53294;47.912;13.526;2022-11-20T15:39:07;2.83;;;1.45;;
66478;SDS011;53294;47.912;13.526;2022-11-20T15:41:35;2.58;;;1.30;;
66478;SDS011;53294;47.912;13.526;2022-11-20T15:44:02;2.47;;;1.50;;
66478;SDS011;53294;47.912;13.526;2022-11-20T15:46:33;6.45;;;3.72;;
66478;SDS011;53294;47.912;13.526;2022-11-20T15:49:05;16.08;;;10.85;;
66478;SDS011;53294;47.912;13.526;2022-11-20T15:51:36;5.80;;;4.32;;
66478;SDS011;53294;47.912;13.526;2022-11-20T15:54:11;4.93;;;2.42;;
66478;SDS011;53294;47.912;13.526;2022-11-20T15:56:43;3.55;;;2.00;;
66478;SDS011;53294;47.912;13.526;2022-11-20T15:59:10;1.67;;;1.25;;
66478;SDS011;53294;47.912;13.526;2022-11-20T16:01:37;2.58;;;1.40;;
66478;SDS011;53294;47.912;13.526;2022-11-20T16:04:04;2.50;;;1.48;;
66478;SDS011;53294;47.912;13.526;2022-11-20T16:06:35;3.50;;;1.80;;
66478;SDS011;53294;47.912;13.526;2022-11-20T16:09:02;3.28;;;1.83;;
66478;SDS011;53294;47.912;13.526;2022-11-20T16:11:29;3.80;;;2.00;;
66478;SDS011;53294;47.912;13.526;2022-11-20T16:13:55;2.47;;;1.23;;
66478;SDS011;53294;47.912;13.526;2022-11-20T16:16:40;4.10;;;2.15;;
66478;SDS011;53294;47.912;13.526;2022-11-20T16:19:10;1.23;;;0.90;;
66478;SDS011;53294;47.912;13.526;2022-11-20T16:21:38;1.70;;;0.82;;
66478;SDS011;53294;47.912;13.526;2022-11-20T16:24:08;1.33;;;1.10;;
66478;SDS011;53294;47.912;13.526;2022-11-20T16:26:38;1.77;;;1.08;;
66478;SDS011;53294;47.912;13.526;2022-11-20T16:29:06;2.90;;;1.25;;
66478;SDS011;53294;47.912;13.526;2022-11-20T16:31:32;4.03;;;1.90;;
66478;SDS011;53294;47.912;13.526;2022-11-20T16:34:00;3.10;;;2.00;;
66478;SDS011;53294;47.912;13.526;2022-11-20T16:36:38;3.53;;;1.50;;